Hovedside
METAR-TAF:

METAR-TAF

Lufthavner :

Lennart Meri Tallinn lufthavn

Tallinn, Estland

breddegrad: 59-23N, lengdegrad: 024-35E, høyde over havet: 44 m

Gjeldene værobservasjon

Denne rapporten ble laget for 11 minutter siden, klokken 14:20 UTC
Vind 14 kt fra Øst-nordøst
Temperatur 27°C
Luftfuktighet 48%
Trykk 1012 hPa
Sikt 10 km eller mer
ingen skyer under 1500 m og ingen bygeskyer

METAR: EETN 181420Z 06014KT CAVOK 27/15 Q1012 NOSIG

Tid: 17:31 (14:31 UTC)

Varsel

Denne rapporten ble laget for 3 timer og 6 minutter siden, klokken 11:25 UTC
Varsel gyldig fra 18. klokken 12 UTC til 19. klokken 12 UTC
Vind 18 kt fra Nordøst
Sikt 10 km eller mer
ingen skyer under 1500 m og ingen bygeskyer
Blir
fra 18. klokken 19 UTC til 18. klokken 21 UTC
Vind 8 kt fra Nordøst

TAF: EETN 181125Z 1812/1912 05018KT CAVOK BECMG 1819/1821 05008KT

Værobservasjoner og værvarsel for over 4000 flyplasser (METAR- og TAF-rapporter).

Tilgjengelige stasjoner er representert av de røde og gule prikkene på kartet.

Hold musepekeren over prikken for å se navnet på stasjonen.

Klikk så for å se værobservasjoner og -varsler.

For å forandre kartet kan du klikke på den grønne knappen med svart kryss for å zoome inn, på den grønne knappen med strek for å zoome ut, eller på de grønne pilene for å se tilstøtende kart.


METAR-TAF: